Time;durP1;ratioP1;P1;durP2;ratioP2;P2;SDS_P1;SDS_P2;PMS_P1;PMS_P2;Temp;Humidity;BMP_temperature;BMP_pressure;BME280_temperature;BME280_humidity;BME280_pressure;Samples;Min_cycle;Max_cycle;Signal;HPM_P1;HPM_P2
2024/03/04 00:01:11;;;;;;;;;;;;;;;5.27;54.50;101088.52;107595;1254;107825;-70
2024/03/04 00:03:46;;;;;;;;;;;;;;;5.24;54.65;101087.73;107526;1254;98450;-69
2024/03/04 00:06:17;;;;;;;;;;;;;;;5.22;54.84;101090.68;107510;1253;97947;-69
2024/03/04 00:08:45;;;;;;;;;;;;;;;5.19;54.88;101088.34;107579;1252;111773;-66
2024/03/04 00:11:14;;;;;;;;;;;;;;;5.15;54.78;101088.23;107579;1254;107459;-67
2024/03/04 00:13:42;;;;;;;;;;;;;;;5.09;54.96;101087.52;107601;1255;108299;-67
2024/03/04 00:16:11;;;;;;;;;;;;;;;5.05;55.00;101085.66;107586;1253;97822;-66
2024/03/04 00:18:40;;;;;;;;;;;;;;;4.98;55.11;101082.52;107612;1252;97707;-66
2024/03/04 00:21:08;;;;;;;;;;;;;;;4.92;55.24;101081.59;107610;1254;111181;-68
2024/03/04 00:23:37;;;;;;;;;;;;;;;4.89;55.04;101082.69;107630;1254;107467;-69
2024/03/04 00:26:08;;;;;;;;;;;;;;;4.85;55.17;101083.92;107539;1253;108625;-70
2024/03/04 00:28:36;;;;;;;;;;;;;;;4.80;55.48;101085.48;107536;1251;97904;-69
2024/03/04 00:31:04;;;;;;;;;;;;;;;4.76;55.44;101083.98;107608;1255;97832;-68
2024/03/04 00:33:33;;;;;;;;;;;;;;;4.69;55.37;101080.10;107608;1253;112239;-70
2024/03/04 00:36:04;;;;;;;;;;;;;;;4.64;55.65;101082.21;107551;1254;107082;-69
2024/03/04 00:38:32;;;;;;;;;;;;;;;4.58;55.83;101081.27;107521;1253;108133;-66
2024/03/04 00:41:01;;;;;;;;;;;;;;;4.53;56.18;101085.63;107564;1251;97717;-67
2024/03/04 00:43:29;;;;;;;;;;;;;;;4.50;56.11;101087.27;107661;1254;97912;-69
2024/03/04 00:45:57;;;;;;;;;;;;;;;4.46;56.38;101091.05;107556;1254;111493;-67
2024/03/04 00:48:26;;;;;;;;;;;;;;;4.38;56.99;101089.15;107531;1254;108219;-68
2024/03/04 00:50:56;;;;;;;;;;;;;;;4.30;56.98;101089.65;107604;1256;108117;-67
2024/03/04 00:53:25;;;;;;;;;;;;;;;4.21;57.22;101092.95;107646;1254;97845;-68
2024/03/04 00:55:53;;;;;;;;;;;;;;;4.10;57.44;101091.30;107593;1254;97829;-68
2024/03/04 00:58:23;;;;;;;;;;;;;;;4.03;57.50;101089.02;107630;1253;111812;-69
2024/03/04 01:00:52;;;;;;;;;;;;;;;4.00;57.38;101087.05;107618;1253;106934;-69
2024/03/04 01:03:21;;;;;;;;;;;;;;;3.98;57.67;101084.14;107615;1254;107835;-69
2024/03/04 01:05:49;;;;;;;;;;;;;;;3.98;57.81;101086.31;107644;1254;97876;-68
2024/03/04 01:08:18;;;;;;;;;;;;;;;3.95;57.80;101088.94;107590;1253;96443;-65
2024/03/04 01:10:46;;;;;;;;;;;;;;;3.90;57.89;101091.88;107569;1254;111768;-67
2024/03/04 01:13:15;;;;;;;;;;;;;;;3.84;58.09;101087.77;107647;1253;108060;-66
2024/03/04 01:15:43;;;;;;;;;;;;;;;3.81;58.19;101085.82;107558;1256;108435;-66
2024/03/04 01:18:11;;;;;;;;;;;;;;;3.79;58.20;101083.60;107553;1253;97736;-66
2024/03/04 01:20:40;;;;;;;;;;;;;;;3.80;58.22;101085.02;107604;1253;97919;-67
2024/03/04 01:23:09;;;;;;;;;;;;;;;3.79;58.82;101084.48;107622;1254;111260;-68
2024/03/04 01:25:38;;;;;;;;;;;;;;;3.78;58.61;101082.98;107618;1254;108392;-67
2024/03/04 01:28:06;;;;;;;;;;;;;;;3.74;58.61;101080.11;107592;1252;108521;-68
2024/03/04 01:30:35;;;;;;;;;;;;;;;3.74;58.34;101082.45;107586;1251;97942;-68
2024/03/04 01:33:06;;;;;;;;;;;;;;;3.72;58.42;101081.64;107539;1259;97941;-68
2024/03/04 01:35:35;;;;;;;;;;;;;;;3.70;58.94;101083.92;107609;1253;111292;-67
2024/03/04 01:38:03;;;;;;;;;;;;;;;3.65;59.00;101084.53;107352;1254;108543;-68
2024/03/04 01:40:31;;;;;;;;;;;;;;;3.61;58.83;101088.84;107532;1255;107910;-65
2024/03/04 01:42:59;;;;;;;;;;;;;;;3.58;58.83;101082.27;107582;1254;97947;-64
2024/03/04 01:45:27;;;;;;;;;;;;;;;3.56;58.83;101089.11;107543;1253;97732;-66
2024/03/04 01:48:03;;;;;;;;;;;;;;;3.53;58.55;101090.48;107607;1251;111893;-64
2024/03/04 01:50:33;;;;;;;;;;;;;;;3.50;58.80;101090.31;107620;1254;108649;-67
2024/03/04 01:53:03;;;;;;;;;;;;;;;3.47;59.20;101086.02;107592;1254;107084;-66
2024/03/04 01:55:35;;;;;;;;;;;;;;;3.44;59.08;101089.38;107554;1253;97868;-67
2024/03/04 01:58:04;;;;;;;;;;;;;;;3.40;59.25;101086.05;107581;1253;97819;-65
2024/03/04 02:00:39;;;;;;;;;;;;;;;3.39;59.40;101089.28;107608;1254;110674;-68
2024/03/04 02:03:09;;;;;;;;;;;;;;;3.38;59.49;101089.52;107567;1254;107988;-68
2024/03/04 02:05:39;;;;;;;;;;;;;;;3.38;59.33;101093.79;107539;1253;107125;-67
2024/03/04 02:08:09;;;;;;;;;;;;;;;3.38;59.32;101095.17;107590;1253;97826;-65
2024/03/04 02:10:37;;;;;;;;;;;;;;;3.38;59.46;101093.79;107604;1254;97714;-64
2024/03/04 02:13:07;;;;;;;;;;;;;;;3.39;59.70;101095.86;107564;1254;110859;-66
2024/03/04 02:15:37;;;;;;;;;;;;;;;3.39;59.62;101097.81;107615;1256;107493;-65
2024/03/04 02:18:07;;;;;;;;;;;;;;;3.39;59.41;101097.30;107605;1255;108789;-65
2024/03/04 02:20:39;;;;;;;;;;;;;;;3.36;59.44;101099.73;107600;1254;97831;-65
2024/03/04 02:23:09;;;;;;;;;;;;;;;3.34;59.42;101098.27;107555;1253;97852;-65
2024/03/04 02:25:50;;;;;;;;;;;;;;;3.32;59.37;101098.02;107632;1255;110281;-66
2024/03/04 02:28:19;;;;;;;;;;;;;;;3.29;59.60;101100.80;107611;1254;107982;-65
2024/03/04 02:30:48;;;;;;;;;;;;;;;3.27;59.62;101101.13;107603;1253;108245;-67
2024/03/04 02:33:19;;;;;;;;;;;;;;;3.25;60.06;101099.45;107612;1254;97922;-67
2024/03/04 02:35:50;;;;;;;;;;;;;;;3.24;59.81;101099.10;107654;1254;97831;-70
2024/03/04 02:38:18;;;;;;;;;;;;;;;3.21;59.79;101106.19;107597;1254;112234;-69
2024/03/04 02:40:50;;;;;;;;;;;;;;;3.18;59.70;101109.40;107612;1252;106724;-72
2024/03/04 02:43:18;;;;;;;;;;;;;;;3.16;59.63;101107.69;107590;1251;107217;-67
2024/03/04 02:45:46;;;;;;;;;;;;;;;3.15;59.76;101108.81;107559;1254;97868;-68
2024/03/04 02:48:14;;;;;;;;;;;;;;;3.12;59.59;101107.36;107620;1251;97819;-69
2024/03/04 02:50:43;;;;;;;;;;;;;;;3.08;59.72;101112.55;107639;1254;111559;-67
2024/03/04 02:53:11;;;;;;;;;;;;;;;3.05;59.77;101108.09;107652;1254;107883;-69
2024/03/04 02:55:39;;;;;;;;;;;;;;;3.03;59.79;101114.94;107614;1251;107320;-67
2024/03/04 02:58:07;;;;;;;;;;;;;;;2.99;59.98;101114.93;107585;1251;97746;-67
2024/03/04 03:00:36;;;;;;;;;;;;;;;2.96;60.18;101112.60;107650;1254;97825;-68
2024/03/04 03:03:05;;;;;;;;;;;;;;;2.93;60.39;101113.85;107581;1256;111530;-68
2024/03/04 03:05:33;;;;;;;;;;;;;;;2.92;60.42;101112.48;107601;1255;107970;-68
2024/03/04 03:08:02;;;;;;;;;;;;;;;2.90;60.44;101116.80;107626;1254;107818;-69
2024/03/04 03:10:30;;;;;;;;;;;;;;;2.89;60.22;101113.70;107588;1251;97832;-68
2024/03/04 03:12:58;;;;;;;;;;;;;;;2.88;60.58;101120.30;107550;1253;97922;-67
2024/03/04 03:15:27;;;;;;;;;;;;;;;2.84;60.62;101122.81;107588;1256;112215;-67
2024/03/04 03:17:56;;;;;;;;;;;;;;;2.81;60.56;101123.13;107474;1252;107737;-68
2024/03/04 03:20:24;;;;;;;;;;;;;;;2.78;61.22;101132.64;107591;1254;109818;-66
2024/03/04 03:22:52;;;;;;;;;;;;;;;2.72;61.32;101132.27;107545;1254;97928;-69
2024/03/04 03:25:20;;;;;;;;;;;;;;;2.68;61.17;101131.20;107621;1253;97819;-65
2024/03/04 03:27:49;;;;;;;;;;;;;;;2.66;61.02;101126.67;107693;1254;111750;-68
2024/03/04 03:30:17;;;;;;;;;;;;;;;2.63;61.01;101128.96;107508;1254;107716;-69
2024/03/04 03:32:46;;;;;;;;;;;;;;;2.60;61.48;101129.83;107597;1254;108526;-70
2024/03/04 03:35:14;;;;;;;;;;;;;;;2.59;61.35;101126.48;107580;1254;97947;-68
2024/03/04 03:37:43;;;;;;;;;;;;;;;2.60;61.30;101120.64;107606;1254;97940;-67
2024/03/04 03:40:11;;;;;;;;;;;;;;;2.59;61.35;101121.93;107563;1251;111144;-68
2024/03/04 03:42:41;;;;;;;;;;;;;;;2.59;61.48;101123.88;107669;1251;108001;-68
2024/03/04 03:45:10;;;;;;;;;;;;;;;2.57;61.78;101125.52;107607;1251;108188;-69
2024/03/04 03:47:38;;;;;;;;;;;;;;;2.55;61.86;101124.23;107575;1252;97912;-68
2024/03/04 03:50:06;;;;;;;;;;;;;;;2.54;61.77;101127.64;107601;1255;97735;-68
2024/03/04 03:52:35;;;;;;;;;;;;;;;2.56;61.63;101122.05;107637;1254;112459;-68
2024/03/04 03:55:04;;;;;;;;;;;;;;;2.56;62.54;101125.09;107662;1251;107865;-67
2024/03/04 03:57:32;;;;;;;;;;;;;;;2.50;62.44;101120.92;107580;1251;108129;-67
2024/03/04 04:00:18;;;;;;;;;;;;;;;2.45;62.62;101117.98;107548;1254;97822;-69
2024/03/04 04:02:47;;;;;;;;;;;;;;;2.40;63.16;101122.14;107551;1254;97992;-68
2024/03/04 04:05:15;;;;;;;;;;;;;;;2.36;63.05;101123.73;107531;1254;111923;-68
2024/03/04 04:07:43;;;;;;;;;;;;;;;2.35;63.25;101124.85;107602;1254;108268;-68
2024/03/04 04:10:13;;;;;;;;;;;;;;;2.33;64.44;101123.86;107569;1254;107808;-68
2024/03/04 04:12:41;;;;;;;;;;;;;;;2.30;63.95;101123.67;107569;1254;97838;-69
2024/03/04 04:15:09;;;;;;;;;;;;;;;2.30;63.79;101126.16;107580;1256;97755;-70
2024/03/04 04:17:38;;;;;;;;;;;;;;;2.31;63.75;101122.52;107583;1251;110404;-68
2024/03/04 04:20:07;;;;;;;;;;;;;;;2.32;64.42;101127.81;107598;1254;107845;-67
2024/03/04 04:22:36;;;;;;;;;;;;;;;2.29;64.49;101130.62;107577;1253;107487;-66
2024/03/04 04:25:05;;;;;;;;;;;;;;;2.25;64.68;101130.29;107490;1253;97822;-68
2024/03/04 04:27:33;;;;;;;;;;;;;;;2.19;64.84;101133.39;107577;1254;98069;-67
2024/03/04 04:30:03;;;;;;;;;;;;;;;2.15;65.25;101135.14;107546;1252;111525;-67
2024/03/04 04:32:34;;;;;;;;;;;;;;;2.14;65.01;101139.11;107579;1254;108597;-66
2024/03/04 04:35:02;;;;;;;;;;;;;;;2.13;64.55;101141.27;107542;1254;106412;-68
2024/03/04 04:37:31;;;;;;;;;;;;;;;2.13;64.50;101151.88;107384;1250;98553;-66
2024/03/04 04:39:59;;;;;;;;;;;;;;;2.14;64.35;101154.66;107605;1254;97719;-67
2024/03/04 04:42:27;;;;;;;;;;;;;;;2.16;64.36;101157.08;107547;1254;113410;-66
2024/03/04 04:44:56;;;;;;;;;;;;;;;2.17;64.17;101157.73;107559;1254;108525;-68
2024/03/04 04:47:26;;;;;;;;;;;;;;;2.19;64.06;101162.07;107525;1254;107415;-69
2024/03/04 04:49:55;;;;;;;;;;;;;;;2.22;64.26;101158.57;107588;1252;97652;-68
2024/03/04 04:52:24;;;;;;;;;;;;;;;2.24;64.31;101158.27;107670;1254;97898;-68
2024/03/04 04:54:52;;;;;;;;;;;;;;;2.26;64.35;101159.98;107603;1256;111968;-65
2024/03/04 04:57:21;;;;;;;;;;;;;;;2.28;63.98;101161.61;107562;1251;107940;-65
2024/03/04 04:59:49;;;;;;;;;;;;;;;2.31;63.90;101167.52;107596;1254;107579;-65
2024/03/04 05:02:18;;;;;;;;;;;;;;;2.32;63.72;101167.46;107529;1254;97866;-65
2024/03/04 05:04:46;;;;;;;;;;;;;;;2.33;63.75;101167.91;107603;1256;97867;-65
2024/03/04 05:07:28;;;;;;;;;;;;;;;2.34;63.80;101170.33;107583;1251;111880;-66
2024/03/04 05:09:57;;;;;;;;;;;;;;;2.32;63.68;101168.35;107591;1251;108477;-65
2024/03/04 05:12:26;;;;;;;;;;;;;;;2.31;63.83;101176.90;107586;1254;107752;-66
2024/03/04 05:14:54;;;;;;;;;;;;;;;2.31;63.82;101179.55;107544;1254;97838;-67
2024/03/04 05:17:23;;;;;;;;;;;;;;;2.33;63.83;101177.52;107598;1251;97970;-68
2024/03/04 05:19:51;;;;;;;;;;;;;;;2.38;64.48;101179.20;107565;1254;111422;-68
2024/03/04 05:22:19;;;;;;;;;;;;;;;2.42;64.66;101179.19;107591;1254;108654;-67
2024/03/04 05:24:48;;;;;;;;;;;;;;;2.45;64.64;101184.70;107582;1251;107984;-68
2024/03/04 05:27:16;;;;;;;;;;;;;;;2.49;64.40;101183.27;107513;1251;97883;-67
2024/03/04 05:29:44;;;;;;;;;;;;;;;2.54;64.53;101187.46;107558;1250;97849;-69
2024/03/04 05:32:13;;;;;;;;;;;;;;;2.56;64.81;101184.71;107538;1251;112183;-66
2024/03/04 05:34:42;;;;;;;;;;;;;;;2.60;64.86;101186.88;107552;1255;108007;-66
2024/03/04 05:37:11;;;;;;;;;;;;;;;2.57;64.67;101189.64;107550;1254;107787;-66
2024/03/04 05:39:44;;;;;;;;;;;;;;;2.56;64.70;101190.20;107503;1254;97861;-67
2024/03/04 05:42:12;;;;;;;;;;;;;;;2.58;64.84;101190.83;107627;1253;97818;-66
2024/03/04 05:44:41;;;;;;;;;;;;;;;2.64;64.85;101196.75;107525;1254;110600;-66
2024/03/04 05:47:09;;;;;;;;;;;;;;;2.73;64.77;101198.11;107605;1254;109344;-68
2024/03/04 05:49:38;;;;;;;;;;;;;;;2.93;65.23;101203.33;107577;1254;106631;-71
2024/03/04 05:52:06;;;;;;;;;;;;;;;3.11;65.12;101208.44;107534;1257;97898;-68
2024/03/04 05:54:34;;;;;;;;;;;;;;;3.23;64.98;101211.73;107590;1256;97842;-67
2024/03/04 05:57:04;;;;;;;;;;;;;;;3.31;65.05;101213.11;107525;1254;111791;-68
2024/03/04 05:59:32;;;;;;;;;;;;;;;3.39;64.91;101208.63;107520;1254;108337;-66
2024/03/04 06:02:00;;;;;;;;;;;;;;;3.42;64.44;101211.81;107338;1259;107368;-67
2024/03/04 06:04:28;;;;;;;;;;;;;;;3.41;64.49;101217.73;107401;1254;97919;-64
2024/03/04 06:06:57;;;;;;;;;;;;;;;3.41;64.33;101217.00;107405;1254;97954;-65
2024/03/04 06:09:26;;;;;;;;;;;;;;;3.45;64.38;101219.87;107503;1256;111838;-65
2024/03/04 06:11:55;;;;;;;;;;;;;;;3.49;64.62;101218.07;107434;1253;108542;-65
2024/03/04 06:14:28;;;;;;;;;;;;;;;3.48;64.44;101217.76;107496;1254;107480;-65
2024/03/04 06:16:57;;;;;;;;;;;;;;;3.49;64.71;101215.23;107502;1256;97889;-68
2024/03/04 06:19:27;;;;;;;;;;;;;;;3.48;65.06;101211.02;107519;1256;97809;-67
2024/03/04 06:21:55;;;;;;;;;;;;;;;3.50;65.45;101209.15;107527;1256;111773;-67
2024/03/04 06:24:39;;;;;;;;;;;;;;;3.60;65.51;101210.74;107499;1254;108298;-67
2024/03/04 06:27:08;;;;;;;;;;;;;;;3.73;65.32;101209.73;107399;1254;108005;-68
2024/03/04 06:29:36;;;;;;;;;;;;;;;3.85;65.53;101206.56;107442;1256;97845;-67
2024/03/04 06:32:04;;;;;;;;;;;;;;;3.98;65.68;101207.33;107429;1254;97729;-67
2024/03/04 06:34:33;;;;;;;;;;;;;;;4.04;65.31;101209.65;107451;1257;112082;-67
2024/03/04 06:37:01;;;;;;;;;;;;;;;4.11;65.32;101209.63;107464;1254;108111;-66
2024/03/04 06:39:29;;;;;;;;;;;;;;;4.12;65.54;101211.04;107480;1251;108170;-67
2024/03/04 06:41:57;;;;;;;;;;;;;;;4.11;65.14;101210.00;107460;1255;97838;-66
2024/03/04 06:44:26;;;;;;;;;;;;;;;4.15;65.37;101210.51;107550;1257;97906;-66
2024/03/04 06:46:54;;;;;;;;;;;;;;;4.19;65.39;101208.84;107459;1254;111693;-68
2024/03/04 06:49:22;;;;;;;;;;;;;;;4.26;65.63;101208.65;107489;1254;108610;-67
2024/03/04 06:51:51;;;;;;;;;;;;;;;4.36;65.56;101204.74;107527;1256;108155;-67
2024/03/04 06:54:19;;;;;;;;;;;;;;;4.52;65.41;101208.29;107462;1256;97854;-67
2024/03/04 06:56:47;;;;;;;;;;;;;;;4.68;65.34;101203.50;107527;1257;97742;-67
2024/03/04 06:59:15;;;;;;;;;;;;;;;4.81;65.24;101200.40;107503;1255;112020;-67
2024/03/04 07:01:43;;;;;;;;;;;;;;;4.97;64.95;101197.55;107452;1254;108678;-67
2024/03/04 07:04:12;;;;;;;;;;;;;;;5.13;64.74;101195.56;107472;1257;107274;-67
2024/03/04 07:06:40;;;;;;;;;;;;;;;5.27;64.34;101193.29;107494;1257;97732;-65
2024/03/04 07:09:08;;;;;;;;;;;;;;;5.37;64.27;101197.03;107485;1250;97914;-66
2024/03/04 07:11:37;;;;;;;;;;;;;;;5.45;64.02;101194.18;107427;1254;111938;-66
2024/03/04 07:14:05;;;;;;;;;;;;;;;5.52;63.79;101191.98;107480;1251;107584;-65
2024/03/04 07:16:34;;;;;;;;;;;;;;;5.60;63.82;101194.55;107553;1254;108619;-65
2024/03/04 07:19:02;;;;;;;;;;;;;;;5.65;63.51;101194.93;107495;1254;98027;-65
2024/03/04 07:21:31;;;;;;;;;;;;;;;5.70;63.33;101193.57;107525;1254;97736;-65
2024/03/04 07:23:59;;;;;;;;;;;;;;;5.79;63.44;101190.56;107548;1251;112392;-64
2024/03/04 07:26:27;;;;;;;;;;;;;;;5.91;63.35;101188.58;107534;1254;108145;-66
2024/03/04 07:28:55;;;;;;;;;;;;;;;6.00;63.02;101185.04;107475;1255;108281;-68
2024/03/04 07:31:25;;;;;;;;;;;;;;;6.07;62.84;101187.23;107468;1251;97703;-66
2024/03/04 07:33:54;;;;;;;;;;;;;;;6.18;62.85;101184.56;107540;1255;97726;-68
2024/03/04 07:36:24;;;;;;;;;;;;;;;6.29;62.74;101185.14;107485;1256;110380;-68
2024/03/04 07:38:53;;;;;;;;;;;;;;;6.42;62.52;101181.63;107460;1251;108708;-67
2024/03/04 07:41:21;;;;;;;;;;;;;;;6.58;62.39;101183.13;107438;1253;108138;-70
2024/03/04 07:43:49;;;;;;;;;;;;;;;6.69;61.98;101181.35;107430;1257;97868;-67
2024/03/04 07:46:18;;;;;;;;;;;;;;;6.76;61.36;101180.16;107436;1254;97735;-68
2024/03/04 07:48:46;;;;;;;;;;;;;;;6.76;61.45;101186.23;107513;1257;112293;-68
2024/03/04 07:51:14;;;;;;;;;;;;;;;6.82;61.35;101182.64;107477;1256;107810;-68
2024/03/04 07:53:43;;;;;;;;;;;;;;;6.89;61.00;101183.61;107520;1254;108443;-68
2024/03/04 07:56:11;;;;;;;;;;;;;;;6.97;61.12;101182.88;107430;1257;97843;-67
2024/03/04 07:58:40;;;;;;;;;;;;;;;7.04;60.83;101184.16;107494;1255;97935;-68
2024/03/04 08:01:09;;;;;;;;;;;;;;;7.16;60.68;101178.90;107463;1254;110693;-66
2024/03/04 08:03:37;;;;;;;;;;;;;;;7.29;60.51;101174.47;107519;1254;108515;-65
2024/03/04 08:06:06;;;;;;;;;;;;;;;7.41;59.94;101173.16;107511;1254;108277;-65
2024/03/04 08:08:34;;;;;;;;;;;;;;;7.55;59.96;101175.39;107482;1257;97822;-66
2024/03/04 08:11:04;;;;;;;;;;;;;;;7.69;59.33;101168.02;107493;1257;97831;-67
2024/03/04 08:13:32;;;;;;;;;;;;;;;7.82;59.18;101164.95;107504;1256;112095;-67
2024/03/04 08:16:00;;;;;;;;;;;;;;;7.96;59.32;101160.77;107483;1251;107824;-66
2024/03/04 08:18:29;;;;;;;;;;;;;;;8.17;59.01;101153.90;107421;1251;107759;-66
2024/03/04 08:20:59;;;;;;;;;;;;;;;8.29;58.61;101154.10;107419;1251;97825;-68
2024/03/04 08:23:27;;;;;;;;;;;;;;;8.43;58.68;101145.06;107528;1254;97714;-67
2024/03/04 08:25:55;;;;;;;;;;;;;;;8.58;57.77;101142.40;107527;1251;111666;-67
2024/03/04 08:28:24;;;;;;;;;;;;;;;8.66;57.49;101138.08;107431;1254;107166;-65
2024/03/04 08:31:04;;;;;;;;;;;;;;;8.79;57.38;101136.16;107441;1255;108291;-67
2024/03/04 08:33:33;;;;;;;;;;;;;;;8.93;56.84;101131.02;107483;1254;97695;-66
2024/03/04 08:36:04;;;;;;;;;;;;;;;8.99;56.29;101123.89;107442;1255;97889;-68
2024/03/04 08:38:33;;;;;;;;;;;;;;;9.09;56.03;101124.64;107464;1255;111015;-65
2024/03/04 08:41:04;;;;;;;;;;;;;;;9.27;56.39;101118.23;107477;1255;107225;-66
2024/03/04 08:43:32;;;;;;;;;;;;;;;9.49;55.79;101114.01;107478;1254;107669;-67
2024/03/04 08:46:01;;;;;;;;;;;;;;;9.70;55.77;101113.44;107473;1255;97870;-66
2024/03/04 08:48:29;;;;;;;;;;;;;;;9.92;55.04;101113.27;107009;1254;675093;-66
2024/03/04 08:50:58;;;;;;;;;;;;;;;10.09;54.61;101117.62;107456;1251;112086;-66
2024/03/04 08:53:27;;;;;;;;;;;;;;;10.32;54.03;101113.86;107411;1251;108630;-67
2024/03/04 08:55:56;;;;;;;;;;;;;;;10.52;54.23;101111.55;107396;1251;108342;-68
2024/03/04 08:58:24;;;;;;;;;;;;;;;10.74;53.71;101110.28;107448;1254;97873;-66
2024/03/04 09:00:52;;;;;;;;;;;;;;;10.85;52.14;101110.97;107463;1251;97832;-70
2024/03/04 09:03:21;;;;;;;;;;;;;;;11.00;52.71;101109.83;107461;1254;110780;-71
2024/03/04 09:05:49;;;;;;;;;;;;;;;11.28;52.12;101111.44;107464;1254;108326;-71
2024/03/04 09:08:17;;;;;;;;;;;;;;;11.56;51.81;101110.59;107436;1254;107549;-71
2024/03/04 09:10:45;;;;;;;;;;;;;;;11.77;50.54;101110.76;107468;1256;97706;-71
2024/03/04 09:13:14;;;;;;;;;;;;;;;11.98;50.50;101108.07;107575;1251;97828;-71
2024/03/04 09:15:42;;;;;;;;;;;;;;;12.24;50.23;101105.40;107459;1251;110724;-70
2024/03/04 09:18:10;;;;;;;;;;;;;;;12.53;49.33;101102.37;107489;1252;107745;-69
2024/03/04 09:20:38;;;;;;;;;;;;;;;12.78;48.49;101101.74;107428;1251;107655;-69
2024/03/04 09:23:07;;;;;;;;;;;;;;;13.02;47.87;101101.64;107511;1254;98478;-70
2024/03/04 09:25:35;;;;;;;;;;;;;;;13.23;46.78;101105.98;107463;1254;97921;-69
2024/03/04 09:28:08;;;;;;;;;;;;;;;13.54;45.88;101112.10;107433;1251;111226;-70
2024/03/04 09:30:37;;;;;;;;;;;;;;;14.03;46.18;101108.31;107517;1251;107646;-70
2024/03/04 09:33:05;;;;;;;;;;;;;;;14.67;45.33;101104.50;107357;1254;106627;-70
2024/03/04 09:35:34;;;;;;;;;;;;;;;15.37;44.40;101105.05;107432;1251;97912;-69
2024/03/04 09:38:02;;;;;;;;;;;;;;;16.00;43.62;101103.38;107432;1254;97890;-70
2024/03/04 09:40:30;;;;;;;;;;;;;;;16.54;42.97;101102.19;107474;1251;111162;-71
2024/03/04 09:42:59;;;;;;;;;;;;;;;16.83;39.17;101099.90;107425;1254;107515;-70
2024/03/04 09:45:28;;;;;;;;;;;;;;;17.04;41.17;101099.21;107467;1256;108138;-69
2024/03/04 09:47:57;;;;;;;;;;;;;;;17.62;41.05;101107.27;107456;1251;97850;-70
2024/03/04 09:50:25;;;;;;;;;;;;;;;18.04;39.10;101103.42;107459;1251;97989;-70
2024/03/04 09:52:56;;;;;;;;;;;;;;;18.58;39.21;101098.09;107528;1254;111555;-69
2024/03/04 09:55:24;;;;;;;;;;;;;;;19.05;37.67;101091.48;107474;1251;107741;-73
2024/03/04 09:57:53;;;;;;;;;;;;;;;19.44;37.76;101087.48;107447;1251;107535;-71
2024/03/04 10:00:23;;;;;;;;;;;;;;;19.72;36.09;101079.05;107365;1254;97829;-70
2024/03/04 10:02:51;;;;;;;;;;;;;;;20.03;36.11;101078.55;107491;1254;97729;-70
2024/03/04 10:05:20;;;;;;;;;;;;;;;20.43;35.38;101076.87;107522;1251;111252;-71
2024/03/04 10:07:50;;;;;;;;;;;;;;;20.83;34.98;101076.55;107473;1250;107622;-71
2024/03/04 10:10:19;;;;;;;;;;;;;;;21.25;34.83;101080.71;107433;1251;107571;-71
2024/03/04 10:12:48;;;;;;;;;;;;;;;21.63;32.59;101075.00;107489;1255;97855;-71
2024/03/04 10:15:20;;;;;;;;;;;;;;;21.73;32.02;101074.14;107391;1251;97854;-71
2024/03/04 10:17:50;;;;;;;;;;;;;;;21.76;31.58;101070.48;107373;1254;111249;-72
2024/03/04 10:20:18;;;;;;;;;;;;;;;21.91;30.80;101066.71;107448;1254;108604;-71
2024/03/04 10:22:46;;;;;;;;;;;;;;;22.06;30.94;101066.33;107453;1254;107041;-71
2024/03/04 10:25:15;;;;;;;;;;;;;;;22.23;29.59;101068.46;107477;1257;97770;-71
2024/03/04 10:27:48;;;;;;;;;;;;;;;22.19;30.29;101061.67;107455;1254;96175;-72
2024/03/04 10:30:21;;;;;;;;;;;;;;;22.40;30.95;101064.02;107503;1251;111276;-71
2024/03/04 10:32:55;;;;;;;;;;;;;;;22.72;29.52;101062.00;107453;1254;107724;-71
2024/03/04 10:35:25;;;;;;;;;;;;;;;22.80;29.04;101055.17;107420;1253;107665;-71
2024/03/04 10:37:59;;;;;;;;;;;;;;;22.99;28.87;101052.09;107455;1254;97850;-71
2024/03/04 10:40:27;;;;;;;;;;;;;;;23.19;28.43;101052.39;107484;1257;97931;-71
2024/03/04 10:42:59;;;;;;;;;;;;;;;23.32;28.78;101049.79;107432;1254;112018;-71
2024/03/04 10:45:32;;;;;;;;;;;;;;;23.45;28.15;101048.92;107478;1251;107688;-71
2024/03/04 10:48:01;;;;;;;;;;;;;;;23.61;28.42;101045.45;107545;1251;107296;-70
2024/03/04 10:50:29;;;;;;;;;;;;;;;23.80;28.67;101045.96;107475;1251;97841;-73
2024/03/04 10:52:58;;;;;;;;;;;;;;;23.99;27.45;101047.68;107521;1251;98534;-71
2024/03/04 10:55:31;;;;;;;;;;;;;;;24.02;27.52;101045.17;107487;1253;111185;-72
2024/03/04 10:58:01;;;;;;;;;;;;;;;24.15;27.92;101041.39;107513;1250;107530;-72
2024/03/04 11:00:32;;;;;;;;;;;;;;;24.38;27.47;101037.70;107618;1254;107548;-72
2024/03/04 11:03:02;;;;;;;;;;;;;;;24.47;26.34;101038.06;107592;1254;97921;-72
2024/03/04 11:05:32;;;;;;;;;;;;;;;24.50;26.52;101034.27;107577;1254;97721;-72
2024/03/04 11:08:15;;;;;;;;;;;;;;;24.56;26.30;101032.70;107633;1250;111292;-72
2024/03/04 11:10:44;;;;;;;;;;;;;;;24.58;26.16;101032.69;107576;1252;107592;-72
2024/03/04 11:13:38;;;;;;;;;;;;;;;24.60;26.20;101026.99;107580;1254;108211;-72
2024/03/04 11:16:16;;;;;;;;;;;;;;;24.68;26.48;101021.30;107354;1251;97838;-71
2024/03/04 11:18:50;;;;;;;;;;;;;;;24.73;25.72;101016.65;107617;1254;98516;-72
2024/03/04 11:21:19;;;;;;;;;;;;;;;24.69;26.24;101016.25;107559;1251;111186;-72
2024/03/04 11:23:49;;;;;;;;;;;;;;;24.67;26.19;101015.96;107580;1253;107240;-71
2024/03/04 11:26:18;;;;;;;;;;;;;;;24.68;26.41;101015.63;107592;1251;107207;-72
2024/03/04 11:28:47;;;;;;;;;;;;;;;24.71;26.67;101010.10;107537;1251;97713;-73
2024/03/04 11:31:29;;;;;;;;;;;;;;;24.84;26.71;101005.20;107545;1251;97844;-71
2024/03/04 11:34:01;;;;;;;;;;;;;;;24.89;26.29;100999.20;107572;1254;112180;-73
2024/03/04 11:36:35;;;;;;;;;;;;;;;24.95;25.71;101000.52;107546;1254;107464;-72
2024/03/04 11:39:04;;;;;;;;;;;;;;;24.63;25.51;100995.85;107577;1253;107635;-71
2024/03/04 11:41:47;;;;;;;;;;;;;;;24.42;25.56;100996.90;107692;1253;97903;-72
2024/03/04 11:44:20;;;;;;;;;;;;;;;24.13;25.99;100991.95;107732;1254;97913;-72
2024/03/04 11:46:48;;;;;;;;;;;;;;;23.92;26.56;100987.21;107612;1254;111190;-72
2024/03/04 11:49:32;;;;;;;;;;;;;;;23.78;26.32;100987.23;107560;1250;107646;-71
2024/03/04 11:52:05;;;;;;;;;;;;;;;23.54;26.73;100978.73;107579;1251;109039;-71
2024/03/04 11:54:34;;;;;;;;;;;;;;;23.39;26.73;100980.98;107461;1251;97852;-72
2024/03/04 11:57:04;;;;;;;;;;;;;;;23.19;26.72;100978.23;107557;1251;97826;-72
2024/03/04 11:59:33;;;;;;;;;;;;;;;22.99;27.26;100976.02;107577;1251;112147;-72
2024/03/04 12:02:07;;;;;;;;;;;;;;;22.80;27.57;100969.94;107606;1250;109114;-72
2024/03/04 12:04:36;;;;;;;;;;;;;;;22.60;27.57;100970.62;107589;1251;107904;-71
2024/03/04 12:07:05;;;;;;;;;;;;;;;22.48;27.59;100969.91;107528;1251;97889;-72
2024/03/04 12:09:34;;;;;;;;;;;;;;;22.34;27.86;100968.20;107577;1252;97847;-70
2024/03/04 12:12:05;;;;;;;;;;;;;;;22.10;27.92;100962.26;107618;1253;110784;-72
2024/03/04 12:14:34;;;;;;;;;;;;;;;21.88;27.77;100968.20;107577;1254;107182;-70
2024/03/04 12:17:03;;;;;;;;;;;;;;;21.58;27.93;100966.61;107583;1253;108295;-71
2024/03/04 12:19:31;;;;;;;;;;;;;;;21.31;28.67;100961.38;107634;1254;96471;-70
2024/03/04 12:22:00;;;;;;;;;;;;;;;21.20;29.00;100965.73;107641;1254;97845;-71
2024/03/04 12:24:29;;;;;;;;;;;;;;;21.31;28.84;100957.34;107708;1253;110864;-72
2024/03/04 12:26:58;;;;;;;;;;;;;;;21.36;28.71;100954.55;107629;1253;108383;-71
2024/03/04 12:29:26;;;;;;;;;;;;;;;21.42;28.89;100951.29;107575;1253;108773;-72
2024/03/04 12:31:55;;;;;;;;;;;;;;;21.52;28.44;100950.91;107636;1254;97822;-70
2024/03/04 12:34:26;;;;;;;;;;;;;;;21.49;28.91;100944.96;107589;1253;97849;-71
2024/03/04 12:36:59;;;;;;;;;;;;;;;21.53;28.99;100941.70;107651;1251;112588;-71
2024/03/04 12:39:28;;;;;;;;;;;;;;;21.64;28.63;100948.08;107614;1251;107607;-70